0J4

Florala Municipal Airport

Florala, Alabama, USA
METAR K0J4 210858Z AUTO 00000KT 10SM CLR 24/22 A2994 RMK AO2 SLP132 T02390222 55003
Observed Flight Rules
Jun-21 @ 08:58 UTC (an hour ago) Visual Flight Rules
Visibility Clouds
10 miles
  • Clear skies
Temperatures Readings
Current 24°C / 75°F
Dewpoint 22°C / 72°F
Humidity 89%
Altimeter 29.94" Hg
Pressure 1013.2 hPa
Elevation 96
METAR K0J4 210858Z AUTO 00000KT 10SM CLR 24/22 A2994 RMK AO2 SLP132 T02390222 55003
Observed Flight Rules
Jun-21 @ 08:58 UTC
(an hour ago)
VFR
Clouds
  • Clear skies
Temperature Dewpoint
24°C / 75°F 22°C / 72°F
Humidity Altimeter Pressure
89% 29.94" Hg 1013.2 hPa